createdAt,value
2023-03-17T00:00:13.301Z,-1.11
2023-03-17T00:00:43.104Z,-.93
2023-03-17T00:01:13.996Z,-.93
2023-03-17T00:01:44.986Z,-.93
2023-03-17T00:02:16.304Z,-.93
2023-03-17T00:02:47.558Z,-1.03
2023-03-17T00:03:49.647Z,-1.03
2023-03-17T00:04:20.451Z,-1.03
2023-03-17T00:04:51.389Z,-1.03
2023-03-17T00:05:21.811Z,-1.03
2023-03-17T00:05:52.935Z,-1.03
2023-03-17T00:06:24.551Z,-1.03
2023-03-17T00:06:54.989Z,-1.03
2023-03-17T00:07:26.208Z,-1.03
2023-03-17T00:07:58.310Z,-1.03
2023-03-17T00:08:29.166Z,-.86
2023-03-17T00:08:59.653Z,-1.03
2023-03-17T00:09:30.300Z,-1.03
2023-03-17T00:10:02.137Z,-1.03
2023-03-17T00:10:32.649Z,-1.12
2023-03-17T00:11:03.865Z,-.96
2023-03-17T00:11:34.036Z,-.96
2023-03-17T00:12:35.983Z,-.96
2023-03-17T00:13:07.812Z,-.96
2023-03-17T00:13:38.530Z,-.96
2023-03-17T00:14:09.363Z,-1.05
2023-03-17T00:14:40.478Z,-1.05
2023-03-17T00:15:11.215Z,-1.05
2023-03-17T00:15:42.136Z,-1.15
2023-03-17T00:16:13.085Z,-1.15
2023-03-17T00:17:01.446Z,-1.15
2023-03-17T00:17:14.956Z,-1.15
2023-03-17T00:17:46.035Z,-.98
2023-03-17T00:18:17.364Z,-.98
2023-03-17T00:18:48.391Z,-.98
2023-03-17T00:19:19.238Z,-1.08
2023-03-17T00:19:50.464Z,-1.08
2023-03-17T00:20:21.256Z,-1.08
2023-03-17T00:20:51.752Z,-1.08
2023-03-17T00:21:23.011Z,-1.08
2023-03-17T00:21:54.134Z,-1.08
2023-03-17T00:22:25.133Z,-1.08
2023-03-17T00:22:55.964Z,-1.08
2023-03-17T00:23:27.838Z,-1.08
2023-03-17T00:23:58.588Z,-1.08
2023-03-17T00:24:29.726Z,-1.08
2023-03-17T00:25:00.437Z,-1.08
2023-03-17T00:25:31.316Z,-1.08
2023-03-17T00:26:02.181Z,-1.08
2023-03-17T00:26:33.018Z,-1.08
2023-03-17T00:27:04.275Z,-1.08
2023-03-17T00:27:34.970Z,-1.25
2023-03-17T00:28:05.964Z,-1.08
2023-03-17T00:28:37.723Z,-1.08
2023-03-17T00:29:09.593Z,-1.08
2023-03-17T00:29:39.606Z,-1.08
2023-03-17T00:30:11.762Z,-1.08
2023-03-17T00:30:41.413Z,-1.08
2023-03-17T00:31:12.367Z,-1.08
2023-03-17T00:31:43.286Z,-1.08
2023-03-17T00:32:14.171Z,-1.08
2023-03-17T00:32:45.230Z,-1.08
2023-03-17T00:33:16.063Z,-1.08
2023-03-17T00:33:47.602Z,-.98
2023-03-17T00:34:49.965Z,-.98
2023-03-17T00:35:20.988Z,-.98
2023-03-17T00:35:51.266Z,-1.15
2023-03-17T00:36:21.998Z,-1.15
2023-03-17T00:37:10.693Z,-1.15
2023-03-17T00:37:24.061Z,-1.15
2023-03-17T00:38:12.614Z,-1.15
2023-03-17T00:38:26.601Z,-1.15
2023-03-17T00:38:57.454Z,-1.05
2023-03-17T00:39:28.861Z,-1.22
2023-03-17T00:40:00.231Z,-1.22
2023-03-17T00:40:31.288Z,-1.22
2023-03-17T00:41:01.401Z,-1.05
2023-03-17T00:41:32.591Z,-.96
2023-03-17T00:42:03.079Z,-.96
2023-03-17T00:42:35.463Z,-.96
2023-03-17T00:43:05.127Z,-1.12
2023-03-17T00:43:36.392Z,-1.12
2023-03-17T00:44:07.510Z,-1.12
2023-03-17T00:44:38.777Z,-1.12
2023-03-17T00:45:09.705Z,-1.12
2023-03-17T00:45:40.528Z,-.96
2023-03-17T00:46:11.320Z,-.96
2023-03-17T00:46:42.338Z,-.96
2023-03-17T00:47:13.031Z,-.79
2023-03-17T00:47:44.088Z,-.72
2023-03-17T00:48:15.026Z,-.98
2023-03-17T00:48:45.851Z,-1.08
2023-03-17T00:49:49.019Z,-1.08
2023-03-17T00:50:20.188Z,-.91
2023-03-17T00:50:50.756Z,-.91
2023-03-17T00:51:21.246Z,-.91
2023-03-17T00:51:52.020Z,-1.18
2023-03-17T00:52:23.100Z,-1.18
2023-03-17T00:52:54.598Z,-1.18
2023-03-17T00:53:25.039Z,-1.18
2023-03-17T00:54:03.389Z,-1.18
2023-03-17T00:54:27.151Z,-1.08
2023-03-17T00:54:58.617Z,-1.08
2023-03-17T00:55:46.151Z,-.91
2023-03-17T00:56:00.726Z,-1.01
2023-03-17T00:56:31.407Z,-1.01
2023-03-17T00:57:02.960Z,-1.01
2023-03-17T00:57:32.945Z,-1.11
2023-03-17T00:58:04.032Z,-1.11
2023-03-17T00:58:34.953Z,-1.11
2023-03-17T00:59:06.226Z,-.95
2023-03-17T00:59:37.110Z,-1.05
2023-03-17T01:00:09.602Z,-1.15
2023-03-17T01:00:40.296Z,-.98
2023-03-17T01:01:10.849Z,-.98
2023-03-17T01:01:41.251Z,-1.25
2023-03-17T01:02:12.548Z,-1.25
2023-03-17T01:02:43.337Z,-1.25
2023-03-17T01:03:14.010Z,-1.25
2023-03-17T01:03:45.118Z,-1.40
2023-03-17T01:04:19.903Z,-1.30
2023-03-17T01:04:52.840Z,-1.30
2023-03-17T01:05:18.995Z,-1.30
2023-03-17T01:05:49.588Z,-1.21
2023-03-17T01:06:20.613Z,-1.21
2023-03-17T01:06:51.768Z,-1.21
2023-03-17T01:07:22.210Z,-1.21
2023-03-17T01:07:53.302Z,-1.37
2023-03-17T01:08:58.558Z,-1.28
2023-03-17T01:09:26.516Z,-1.18
2023-03-17T01:09:58.073Z,-1.18
2023-03-17T01:10:35.511Z,-1.08
2023-03-17T01:11:40.855Z,-1.08
2023-03-17T01:12:04.660Z,-1.08
2023-03-17T01:13:10.975Z,-1.08
2023-03-17T01:13:42.719Z,-.91
2023-03-17T01:14:23.998Z,-1.01
2023-03-17T01:14:38.089Z,-1.01
2023-03-17T01:15:08.452Z,-1.01
2023-03-17T01:15:38.430Z,-1.01
2023-03-17T01:16:09.506Z,-1.01
2023-03-17T01:16:41.841Z,-1.11
2023-03-17T01:17:17.587Z,-1.11
2023-03-17T01:17:42.533Z,-1.11
2023-03-17T01:18:15.733Z,-1.11
2023-03-17T01:18:45.880Z,-1.21
2023-03-17T01:19:15.740Z,-1.21
2023-03-17T01:19:46.798Z,-1.05
2023-03-17T01:20:20.588Z,-1.05
2023-03-17T01:20:53.747Z,-1.05
2023-03-17T01:21:25.391Z,-1.21
2023-03-17T01:21:51.439Z,-1.21
2023-03-17T01:22:21.274Z,-1.21
2023-03-17T01:23:08.219Z,-1.21
2023-03-17T01:23:24.168Z,-1.21
2023-03-17T01:23:54.606Z,-1.21
2023-03-17T01:24:25.519Z,-1.21
2023-03-17T01:24:56.684Z,-1.21
2023-03-17T01:25:28.427Z,-1.21
2023-03-17T01:25:59.783Z,-1.21
2023-03-17T01:26:31.384Z,-1.11
2023-03-17T01:27:02.106Z,-1.11
2023-03-17T01:27:32.845Z,-1.11
2023-03-17T01:28:02.701Z,-1.11
2023-03-17T01:28:33.586Z,-1.11
2023-03-17T01:29:04.773Z,-1.18
2023-03-17T01:29:35.406Z,-1.18
2023-03-17T01:30:38.092Z,-1.01
2023-03-17T01:31:13.582Z,-1.01
2023-03-17T01:31:56.581Z,-1.18
2023-03-17T01:32:11.298Z,-1.01
2023-03-17T01:32:44.142Z,-1.01
2023-03-17T01:33:13.625Z,-.85
2023-03-17T01:33:44.794Z,-.85
2023-03-17T01:34:19.067Z,-1.01
2023-03-17T01:34:59.798Z,-1.11
2023-03-17T01:35:16.512Z,-.95
2023-03-17T01:35:48.206Z,-.95
2023-03-17T01:36:19.896Z,-.95
2023-03-17T01:36:50.673Z,-1.11
2023-03-17T01:37:47.681Z,-.95
2023-03-17T01:37:51.853Z,-.95
2023-03-17T01:38:29.031Z,-.88
2023-03-17T01:38:54.013Z,-.88
2023-03-17T01:39:57.074Z,-.88
2023-03-17T01:40:28.309Z,-1.05
2023-03-17T01:40:58.142Z,-1.05
2023-03-17T01:41:30.104Z,-1.05
2023-03-17T01:42:00.259Z,-1.05
2023-03-17T01:42:32.237Z,-.88
2023-03-17T01:43:02.650Z,-1.05
2023-03-17T01:43:33.730Z,-1.05
2023-03-17T01:44:03.411Z,-1.21
2023-03-17T01:45:08.584Z,-1.28
2023-03-17T01:45:38.226Z,-1.28
2023-03-17T01:46:08.221Z,-1.18
2023-03-17T01:46:39.247Z,-.91
2023-03-17T01:47:09.708Z,-1.08
2023-03-17T01:47:41.258Z,-1.08
2023-03-17T01:48:11.914Z,-.98
2023-03-17T01:48:42.861Z,-.98
2023-03-17T01:49:13.673Z,-.98
2023-03-17T01:50:02.304Z,-.98
2023-03-17T01:50:16.740Z,-1.15
2023-03-17T01:50:49.340Z,-1.15
2023-03-17T01:51:18.109Z,-.98
2023-03-17T01:51:51.752Z,-.98
2023-03-17T01:52:21.024Z,-.98
2023-03-17T01:52:51.346Z,-.98
2023-03-17T01:53:22.122Z,-.98
2023-03-17T01:53:52.606Z,-.98
2023-03-17T01:54:40.225Z,-.98
2023-03-17T01:54:55.136Z,-.98
2023-03-17T01:55:25.813Z,-.98
2023-03-17T01:55:56.390Z,-.98
2023-03-17T01:56:28.419Z,-.89
2023-03-17T01:56:59.537Z,-.89
2023-03-17T01:57:30.389Z,-.89
2023-03-17T01:58:01.690Z,-.89
2023-03-17T01:58:32.125Z,-1.05
2023-03-17T01:59:03.145Z,-1.05
2023-03-17T01:59:33.726Z,-.96
2023-03-17T02:00:41.960Z,-.96
2023-03-17T02:01:12.249Z,-.86
2023-03-17T02:01:51.787Z,-.86
2023-03-17T02:02:08.723Z,-.86
2023-03-17T02:02:40.219Z,-.86
2023-03-17T02:03:32.451Z,-.86
2023-03-17T02:04:02.913Z,-.86
2023-03-17T02:04:34.136Z,-.86
2023-03-17T02:05:05.713Z,-.86
2023-03-17T02:05:34.792Z,-.86
2023-03-17T02:06:05.996Z,-.86
2023-03-17T02:06:42.178Z,-.86
2023-03-17T02:07:39.604Z,-.69
2023-03-17T02:08:13.903Z,-.79
2023-03-17T02:08:42.118Z,-.79
2023-03-17T02:09:12.239Z,-.79
2023-03-17T02:10:16.000Z,-.79
2023-03-17T02:10:45.180Z,-.89
2023-03-17T02:11:15.430Z,-.89
2023-03-17T02:11:48.291Z,-.89
2023-03-17T02:12:18.153Z,-.89
2023-03-17T02:12:49.017Z,-.98
2023-03-17T02:13:21.008Z,-.98
2023-03-17T02:13:51.863Z,-.98
2023-03-17T02:14:22.574Z,-1.08
2023-03-17T02:14:53.495Z,-1.25
2023-03-17T02:15:43.279Z,-1.25
2023-03-17T02:15:54.789Z,-1.08
2023-03-17T02:16:27.864Z,-1.08
2023-03-17T02:16:57.803Z,-.91
2023-03-17T02:17:28.825Z,-.91
2023-03-17T02:17:59.180Z,-.76
2023-03-17T02:18:31.004Z,-.69
2023-03-17T02:19:02.036Z,-.69
2023-03-17T02:19:32.727Z,-.85
2023-03-17T02:20:03.418Z,-.95
2023-03-17T02:20:34.032Z,-.95
2023-03-17T02:21:28.892Z,-.95
2023-03-17T02:22:01.494Z,-.95
2023-03-17T02:22:31.762Z,-.95
2023-03-17T02:23:02.331Z,-.95
2023-03-17T02:23:51.638Z,-1.05
2023-03-17T02:24:03.620Z,-1.05
2023-03-17T02:24:34.950Z,-1.21
2023-03-17T02:25:05.370Z,-1.21
2023-03-17T02:25:37.345Z,-1.21
2023-03-17T02:26:07.990Z,-1.21
2023-03-17T02:26:38.753Z,-1.05
2023-03-17T02:27:10.203Z,-.88
2023-03-17T02:27:41.188Z,-.72
2023-03-17T02:28:12.297Z,-.72
2023-03-17T02:28:42.581Z,-.72
2023-03-17T02:29:13.460Z,-.81
2023-03-17T02:29:44.520Z,-.81
2023-03-17T02:30:16.233Z,-.81
2023-03-17T02:30:46.414Z,-.91
2023-03-17T02:31:25.703Z,-.91
2023-03-17T02:31:49.157Z,-.91
2023-03-17T02:32:20.433Z,-.91
2023-03-17T02:32:51.613Z,-.91
2023-03-17T02:33:21.958Z,-.91
2023-03-17T02:33:53.094Z,-.91
2023-03-17T02:34:45.131Z,-.91
2023-03-17T02:34:54.638Z,-.91
2023-03-17T02:35:25.652Z,-.91
2023-03-17T02:35:56.669Z,-.91
2023-03-17T02:36:27.752Z,-.98
2023-03-17T02:37:00.641Z,-.98
2023-03-17T02:38:32.270Z,-1.05
2023-03-17T02:39:05.568Z,-1.18
2023-03-17T02:39:33.455Z,-.98
2023-03-17T02:40:04.653Z,-.89
2023-03-17T02:40:35.408Z,-.89
2023-03-17T02:41:23.908Z,-1.05
2023-03-17T02:41:38.524Z,-1.05
2023-03-17T02:42:08.635Z,-1.05
2023-03-17T02:42:40.100Z,-1.05
2023-03-17T02:43:12.209Z,-1.05
2023-03-17T02:43:42.426Z,-.89
2023-03-17T02:44:12.933Z,-.72
2023-03-17T02:44:43.827Z,-.56
2023-03-17T02:45:15.048Z,-.66
2023-03-17T02:45:45.790Z,-.66
2023-03-17T02:46:48.428Z,-.69
2023-03-17T02:47:18.950Z,-.69
2023-03-17T02:47:50.520Z,-.69
2023-03-17T02:48:52.319Z,-.79
2023-03-17T02:49:23.572Z,-.79
2023-03-17T02:49:54.076Z,-.79
2023-03-17T02:50:25.086Z,-.79
2023-03-17T02:50:55.749Z,-.79
2023-03-17T02:51:26.667Z,-.88
2023-03-17T02:51:57.902Z,-.72
2023-03-17T02:52:28.724Z,-.72
2023-03-17T02:53:01.113Z,-.72
2023-03-17T02:53:45.410Z,-.72
2023-03-17T02:54:03.423Z,-.81
2023-03-17T02:54:38.975Z,-.81
2023-03-17T02:55:05.835Z,-.81
2023-03-17T02:55:34.694Z,-.81
2023-03-17T02:56:05.639Z,-1.08
2023-03-17T02:56:36.884Z,-1.08
2023-03-17T02:57:07.990Z,-1.08
2023-03-17T02:57:38.780Z,-.91
2023-03-17T02:58:10.091Z,-.91
2023-03-17T02:58:41.641Z,-.76
2023-03-17T02:59:28.716Z,-.76
2023-03-17T02:59:42.937Z,-.60
2023-03-17T03:00:15.187Z,-.60
2023-03-17T03:00:44.674Z,-.70
2023-03-17T03:01:15.988Z,-.70
2023-03-17T03:01:48.054Z,-.70
2023-03-17T03:02:17.768Z,-.70
2023-03-17T03:02:48.733Z,-.70
2023-03-17T03:03:19.847Z,-.85
2023-03-17T03:03:51.242Z,-1.01
2023-03-17T03:04:22.130Z,-1.18
2023-03-17T03:05:23.739Z,-1.15
2023-03-17T03:05:54.646Z,-1.21
2023-03-17T03:06:25.653Z,-1.11
2023-03-17T03:06:56.695Z,-1.01
2023-03-17T03:07:28.012Z,-.91
2023-03-17T03:08:00.798Z,-.91
2023-03-17T03:08:31.478Z,-.98
2023-03-17T03:09:03.446Z,-.89
2023-03-17T03:09:33.386Z,-.89
2023-03-17T03:10:03.689Z,-.79
2023-03-17T03:10:33.926Z,-.96
2023-03-17T03:11:30.653Z,-.96
2023-03-17T03:11:40.847Z,-.69
2023-03-17T03:12:06.597Z,-.69
2023-03-17T03:12:38.148Z,-.52
2023-03-17T03:13:09.077Z,-.52
2023-03-17T03:13:40.522Z,-.52
2023-03-17T03:14:12.369Z,-.79
2023-03-17T03:14:42.642Z,-.96
2023-03-17T03:15:15.235Z,-1.12
2023-03-17T03:15:43.993Z,-1.12
2023-03-17T03:16:14.968Z,-.96
2023-03-17T03:16:45.834Z,-.69
2023-03-17T03:17:16.707Z,-.86
2023-03-17T03:17:47.619Z,-1.03
2023-03-17T03:18:23.321Z,-1.21
2023-03-17T03:18:49.759Z,-.86
2023-03-17T03:19:22.108Z,-.76
2023-03-17T03:19:52.860Z,-.76
2023-03-17T03:20:23.604Z,-1.11
2023-03-17T03:20:54.546Z,-1.11
2023-03-17T03:21:24.796Z,-1.11
2023-03-17T03:21:56.079Z,-1.01
2023-03-17T03:22:26.931Z,-.83
2023-03-17T03:22:57.540Z,-.83
2023-03-17T03:23:28.778Z,-.83
2023-03-17T03:24:00.840Z,-.74
2023-03-17T03:24:32.333Z,-.57
2023-03-17T03:25:03.559Z,-.57
2023-03-17T03:25:33.625Z,-.57
2023-03-17T03:26:22.452Z,-.50
2023-03-17T03:26:34.703Z,-.50
2023-03-17T03:27:05.960Z,-.50
2023-03-17T03:27:37.072Z,-.33
2023-03-17T03:28:08.224Z,-.43
2023-03-17T03:28:39.058Z,-.43
2023-03-17T03:29:10.660Z,-.37
2023-03-17T03:29:41.618Z,-.37
2023-03-17T03:30:13.585Z,-.30
2023-03-17T03:30:43.767Z,-.39
2023-03-17T03:31:45.004Z,-.39
2023-03-17T03:32:16.109Z,-.49
2023-03-17T03:32:46.962Z,-.49
2023-03-17T03:33:18.264Z,-.49
2023-03-17T03:33:48.845Z,-.32
2023-03-17T03:34:20.009Z,-.32
2023-03-17T03:35:23.628Z,-.59
2023-03-17T03:35:54.615Z,-.59
2023-03-17T03:36:24.988Z,-.59
2023-03-17T03:36:54.642Z,-.59
2023-03-17T03:37:27.578Z,-.59
2023-03-17T03:37:56.895Z,-.59
2023-03-17T03:38:58.679Z,-.59
2023-03-17T03:39:30.346Z,-.59
2023-03-17T03:40:02.261Z,-.42
2023-03-17T03:40:32.632Z,-.42
2023-03-17T03:41:03.381Z,-.42
2023-03-17T03:41:33.935Z,-.59
2023-03-17T03:42:05.031Z,-.59
2023-03-17T03:42:35.816Z,-.76
2023-03-17T03:43:19.914Z,-.76
2023-03-17T03:43:38.019Z,-.66
2023-03-17T03:44:08.933Z,-.56
2023-03-17T03:44:39.804Z,-.56
2023-03-17T03:45:13.030Z,-.56
2023-03-17T03:46:13.841Z,-.56
2023-03-17T03:46:44.259Z,-.56
2023-03-17T03:47:15.460Z,-.56
2023-03-17T03:47:46.060Z,-.56
2023-03-17T03:48:16.988Z,-.66
2023-03-17T03:48:47.919Z,-.49
2023-03-17T03:49:18.940Z,-.66
2023-03-17T03:49:50.145Z,-.66
2023-03-17T03:50:21.417Z,-.66
2023-03-17T03:50:52.644Z,-.59
2023-03-17T03:51:25.201Z,-.59
2023-03-17T03:51:54.596Z,-.59
2023-03-17T03:52:26.429Z,-.59
2023-03-17T03:52:56.336Z,-.69
2023-03-17T03:53:45.420Z,-.69
2023-03-17T03:53:57.887Z,-.69
2023-03-17T03:54:28.837Z,-.69
2023-03-17T03:54:59.924Z,-.69
2023-03-17T03:55:31.974Z,-.69
2023-03-17T03:56:03.579Z,-.69
2023-03-17T03:56:33.719Z,-.69
2023-03-17T03:57:05.383Z,-.79
2023-03-17T03:57:35.195Z,-.79
2023-03-17T03:58:06.246Z,-.79
2023-03-17T03:58:37.757Z,-.95
2023-03-17T03:59:08.567Z,-.85
2023-03-17T03:59:43.088Z,-.85
2023-03-17T04:00:11.831Z,-.85
2023-03-17T04:00:43.070Z,-.85
2023-03-17T04:01:12.157Z,-.85
2023-03-17T04:01:44.109Z,-.69
2023-03-17T04:02:14.690Z,-.85
2023-03-17T04:02:47.204Z,-.85
2023-03-17T04:03:16.899Z,-.95
2023-03-17T04:03:47.458Z,-.95
2023-03-17T04:04:18.237Z,-.95
2023-03-17T04:04:49.204Z,-.79
2023-03-17T04:05:21.429Z,-.79
2023-03-17T04:05:52.088Z,-.79
2023-03-17T04:06:23.984Z,-.95
2023-03-17T04:07:26.333Z,-.95
2023-03-17T04:07:56.400Z,-.95
2023-03-17T04:08:26.777Z,-1.11
2023-03-17T04:08:58.378Z,-1.11
2023-03-17T04:09:28.519Z,-1.01
2023-03-17T04:09:58.968Z,-.91
2023-03-17T04:10:32.467Z,-.98
2023-03-17T04:11:02.222Z,-.98
2023-03-17T04:11:33.035Z,-.89
2023-03-17T04:12:05.634Z,-.89
2023-03-17T04:12:34.763Z,-.89
2023-03-17T04:13:05.616Z,-.89
2023-03-17T04:13:36.109Z,-.79
2023-03-17T04:14:07.534Z,-.96
2023-03-17T04:14:37.918Z,-.96
2023-03-17T04:15:41.766Z,-1.12
2023-03-17T04:16:12.570Z,-1.03
2023-03-17T04:16:59.042Z,-.86
2023-03-17T04:17:15.402Z,-.86
2023-03-17T04:17:45.016Z,-.86
2023-03-17T04:18:15.243Z,-.96
2023-03-17T04:18:46.716Z,-.96
2023-03-17T04:19:17.241Z,-.96
2023-03-17T04:19:48.484Z,-.79
2023-03-17T04:20:19.859Z,-.89
2023-03-17T04:20:50.779Z,-.89
2023-03-17T04:21:21.328Z,-.72
2023-03-17T04:21:54.736Z,-.82
2023-03-17T04:22:24.670Z,-.91
2023-03-17T04:22:55.884Z,-1.01
2023-03-17T04:23:26.412Z,-1.01
2023-03-17T04:23:56.909Z,-.85
2023-03-17T04:24:27.150Z,-.95
2023-03-17T04:24:58.902Z,-.95
2023-03-17T04:25:29.615Z,-1.05
2023-03-17T04:26:00.900Z,-1.05
2023-03-17T04:26:32.021Z,-1.05
2023-03-17T04:27:05.508Z,-1.15
2023-03-17T04:27:35.601Z,-1.15
2023-03-17T04:28:05.492Z,-1.15
2023-03-17T04:28:36.462Z,-1.15
2023-03-17T04:29:06.336Z,-1.15
2023-03-17T04:29:37.616Z,-1.15
2023-03-17T04:30:09.985Z,-1.15
2023-03-17T04:30:39.132Z,-1.15
2023-03-17T04:31:10.147Z,-1.15
2023-03-17T04:31:42.035Z,-1.15
2023-03-17T04:32:12.577Z,-1.15
2023-03-17T04:32:44.552Z,-1.15
2023-03-17T04:33:14.730Z,-.98
2023-03-17T04:33:45.225Z,-1.15
2023-03-17T04:34:15.841Z,-1.08
2023-03-17T04:34:46.874Z,-1.08
2023-03-17T04:35:18.048Z,-.91
2023-03-17T04:36:20.772Z,-1.01
2023-03-17T04:36:51.809Z,-1.11
2023-03-17T04:37:22.923Z,-.95
2023-03-17T04:37:55.085Z,-1.05
2023-03-17T04:38:24.248Z,-1.05
2023-03-17T04:38:55.297Z,-1.15
2023-03-17T04:39:26.200Z,-1.15
2023-03-17T04:39:57.110Z,-1.15
2023-03-17T04:40:58.942Z,-1.15
2023-03-17T04:41:30.767Z,-1.25
2023-03-17T04:42:01.592Z,-1.25
2023-03-17T04:42:32.763Z,-1.09
2023-03-17T04:43:03.725Z,-1.09
2023-03-17T04:43:34.860Z,-1.09
2023-03-17T04:44:05.339Z,-1.09
2023-03-17T04:44:36.077Z,-1.09
2023-03-17T04:45:08.001Z,-1.09
2023-03-17T04:45:38.469Z,-1.09
2023-03-17T04:46:09.188Z,-1.09
2023-03-17T04:46:40.235Z,-1.09
2023-03-17T04:47:11.599Z,-1.09
2023-03-17T04:47:42.613Z,-1.09
2023-03-17T04:48:13.802Z,-1.09
2023-03-17T04:48:44.792Z,-1.09
2023-03-17T04:49:15.340Z,-1.09
2023-03-17T04:49:46.265Z,-1.09
2023-03-17T04:50:17.772Z,-1.25
2023-03-17T04:50:48.198Z,-1.25
2023-03-17T04:51:19.218Z,-1.25
2023-03-17T04:51:49.988Z,-1.15
2023-03-17T04:52:21.394Z,-1.15
2023-03-17T04:52:52.894Z,-1.15
2023-03-17T04:53:24.336Z,-1.15
2023-03-17T04:53:54.694Z,-1.15
2023-03-17T04:54:25.880Z,-1.15
2023-03-17T04:54:56.236Z,-1.30
2023-03-17T04:55:27.677Z,-1.21
2023-03-17T04:55:58.160Z,-1.21
2023-03-17T04:56:31.642Z,-1.21
2023-03-17T04:57:00.598Z,-1.21
2023-03-17T04:57:31.518Z,-1.30
2023-03-17T04:58:02.577Z,-1.30
2023-03-17T04:58:33.885Z,-1.15
2023-03-17T04:59:34.921Z,-1.15
2023-03-17T05:00:07.128Z,-1.15
2023-03-17T05:00:37.425Z,-1.15
2023-03-17T05:01:08.507Z,-1.25
2023-03-17T05:01:39.408Z,-1.25
2023-03-17T05:02:10.446Z,-1.25
2023-03-17T05:02:41.649Z,-1.25
2023-03-17T05:03:26.056Z,-1.25
2023-03-17T05:03:43.080Z,-1.09
2023-03-17T05:04:25.265Z,-1.25
2023-03-17T05:04:45.158Z,-1.35
2023-03-17T05:05:16.358Z,-1.35
2023-03-17T05:05:47.237Z,-1.35
2023-03-17T05:06:19.032Z,-1.35
2023-03-17T05:06:49.452Z,-1.35
2023-03-17T05:07:20.643Z,-1.35
2023-03-17T05:07:51.625Z,-1.35
2023-03-17T05:08:23.020Z,-1.44
2023-03-17T05:08:53.178Z,-1.44
2023-03-17T05:09:24.328Z,-1.44
2023-03-17T05:09:55.242Z,-1.44
2023-03-17T05:10:26.199Z,-1.44
2023-03-17T05:10:58.082Z,-1.44
2023-03-17T05:11:28.646Z,-1.44
2023-03-17T05:11:59.368Z,-1.60
2023-03-17T05:12:30.519Z,-1.44
2023-03-17T05:13:02.184Z,-1.44
2023-03-17T05:13:32.220Z,-1.44
2023-03-17T05:14:03.533Z,-1.44
2023-03-17T05:14:34.283Z,-1.44
2023-03-17T05:15:06.403Z,-1.44
2023-03-17T05:15:36.365Z,-1.29
2023-03-17T05:16:08.183Z,-1.29
2023-03-17T05:16:38.765Z,-1.29
2023-03-17T05:17:09.380Z,-1.44
2023-03-17T05:17:40.270Z,-1.44
2023-03-17T05:18:12.293Z,-1.29
2023-03-17T05:18:42.724Z,-1.44
2023-03-17T05:19:13.423Z,-1.44
2023-03-17T05:19:44.319Z,-1.44
2023-03-17T05:20:15.681Z,-1.44
2023-03-17T05:20:45.984Z,-1.44
2023-03-17T05:21:18.333Z,-1.44
2023-03-17T05:21:48.873Z,-1.54
2023-03-17T05:22:19.322Z,-1.54
2023-03-17T05:22:50.814Z,-1.54
2023-03-17T05:23:21.555Z,-1.44
2023-03-17T05:23:57.334Z,-1.44
2023-03-17T05:24:23.356Z,-1.60
2023-03-17T05:24:54.366Z,-1.60
2023-03-17T05:25:25.373Z,-1.60
2023-03-17T05:26:28.175Z,-1.60
2023-03-17T05:26:59.292Z,-1.60
2023-03-17T05:27:29.270Z,-1.60
2023-03-17T05:28:00.873Z,-1.60
2023-03-17T05:28:31.696Z,-1.60
2023-03-17T05:29:02.460Z,-1.60
2023-03-17T05:29:33.530Z,-1.44
2023-03-17T05:30:04.885Z,-1.60
2023-03-17T05:30:35.262Z,-1.60
2023-03-17T05:31:09.547Z,-1.67
2023-03-17T05:31:39.160Z,-1.57
2023-03-17T05:32:09.115Z,-1.47
2023-03-17T05:32:40.130Z,-1.37
2023-03-17T05:33:10.750Z,-1.37
2023-03-17T05:33:41.667Z,-1.37
2023-03-17T05:34:12.689Z,-1.37
2023-03-17T05:35:14.439Z,-1.37
2023-03-17T05:35:45.407Z,-1.37
2023-03-17T05:36:16.510Z,-1.54
2023-03-17T05:36:47.418Z,-1.44
2023-03-17T05:37:18.890Z,-1.44
2023-03-17T05:37:49.524Z,-1.27
2023-03-17T05:38:20.729Z,-1.27
2023-03-17T05:38:51.668Z,-1.27
2023-03-17T05:39:22.321Z,-1.27
2023-03-17T05:39:53.404Z,-1.27
2023-03-17T05:40:42.172Z,-1.44
2023-03-17T05:40:55.543Z,-1.44
2023-03-17T05:41:27.605Z,-1.44
2023-03-17T05:41:58.606Z,-1.44
2023-03-17T05:42:59.333Z,-1.44
2023-03-17T05:43:30.966Z,-1.44
2023-03-17T05:44:02.109Z,-1.37
2023-03-17T05:44:32.599Z,-1.54
2023-03-17T05:45:04.208Z,-1.54
2023-03-17T05:45:34.556Z,-1.44
2023-03-17T05:46:05.693Z,-1.44
2023-03-17T05:46:36.300Z,-1.44
2023-03-17T05:47:08.830Z,-1.44
2023-03-17T05:47:38.814Z,-1.44
2023-03-17T05:48:11.198Z,-1.44
2023-03-17T05:48:41.019Z,-1.44
2023-03-17T05:49:12.028Z,-1.44
2023-03-17T05:49:42.751Z,-1.44
2023-03-17T05:50:14.053Z,-1.44
2023-03-17T05:50:44.218Z,-1.44
2023-03-17T05:51:15.616Z,-1.44
2023-03-17T05:51:47.716Z,-1.44
2023-03-17T05:52:18.770Z,-1.44
2023-03-17T05:52:49.126Z,-1.44
2023-03-17T05:53:19.616Z,-1.44
2023-03-17T05:53:50.962Z,-1.44
2023-03-17T05:54:22.283Z,-1.44
2023-03-17T05:54:52.487Z,-1.44
2023-03-17T05:55:23.486Z,-1.44
2023-03-17T05:55:54.289Z,-1.44
2023-03-17T05:56:25.464Z,-1.44
2023-03-17T05:56:56.840Z,-1.44
2023-03-17T05:57:29.470Z,-1.44
2023-03-17T05:58:15.874Z,-1.34
2023-03-17T05:58:30.267Z,-1.34
2023-03-17T05:59:00.603Z,-1.34
2023-03-17T05:59:31.914Z,-1.34
2023-03-17T06:00:03.406Z,-1.34
2023-03-17T06:00:34.685Z,-1.50
2023-03-17T06:01:04.204Z,-1.50
2023-03-17T06:01:35.457Z,-1.30
2023-03-17T06:02:07.068Z,-1.30
2023-03-17T06:02:38.020Z,-1.30
2023-03-17T06:03:08.714Z,-1.21
2023-03-17T06:03:39.778Z,-1.21
2023-03-17T06:04:10.919Z,-1.21
2023-03-17T06:04:41.653Z,-1.21
2023-03-17T06:05:12.646Z,-1.21
2023-03-17T06:05:54.252Z,-1.37
2023-03-17T06:06:14.633Z,-1.28
2023-03-17T06:06:45.350Z,-1.18
2023-03-17T06:07:17.239Z,-1.18
2023-03-17T06:07:52.884Z,-1.08
2023-03-17T06:08:21.010Z,-1.08
2023-03-17T06:08:49.549Z,-.82
2023-03-17T06:09:20.441Z,-.82
2023-03-17T06:09:51.911Z,-.98
2023-03-17T06:10:25.463Z,-.98
2023-03-17T06:10:53.205Z,-.98
2023-03-17T06:11:24.320Z,-.98
2023-03-17T06:12:00.554Z,-1.05
2023-03-17T06:12:27.300Z,-1.05
2023-03-17T06:12:58.472Z,-1.12
2023-03-17T06:13:28.901Z,-1.12
2023-03-17T06:13:59.694Z,-1.03
2023-03-17T06:14:31.398Z,-1.03
2023-03-17T06:15:02.115Z,-.93
2023-03-17T06:15:34.410Z,-.93
2023-03-17T06:16:03.369Z,-1.11
2023-03-17T06:16:35.696Z,-1.11
2023-03-17T06:17:05.527Z,-1.11
2023-03-17T06:17:40.220Z,-1.01
2023-03-17T06:18:08.257Z,-1.01
2023-03-17T06:18:38.902Z,-.83
2023-03-17T06:19:09.502Z,-.66
2023-03-17T06:19:40.390Z,-.66
2023-03-17T06:20:12.001Z,-.59
2023-03-17T06:20:42.602Z,-.59
2023-03-17T06:21:13.722Z,-.59
2023-03-17T06:21:44.704Z,-.69
2023-03-17T06:22:15.559Z,-.52
2023-03-17T06:23:04.022Z,-.52
2023-03-17T06:23:18.302Z,-.62
2023-03-17T06:23:49.894Z,-.62
2023-03-17T06:24:19.558Z,-.62
2023-03-17T06:24:50.611Z,-.62
2023-03-17T06:25:22.214Z,-.89
2023-03-17T06:25:52.495Z,-.89
2023-03-17T06:26:23.519Z,-1.05
2023-03-17T06:26:54.572Z,-1.12
2023-03-17T06:27:25.740Z,-1.03
2023-03-17T06:27:56.509Z,-1.03
2023-03-17T06:28:59.376Z,-1.11
2023-03-17T06:29:29.521Z,-1.01
2023-03-17T06:30:01.823Z,-1.08
2023-03-17T06:30:31.747Z,-1.08
2023-03-17T06:31:03.691Z,-.82
2023-03-17T06:31:34.142Z,-.82
2023-03-17T06:32:19.241Z,-.82
2023-03-17T06:32:35.526Z,-.82
2023-03-17T06:33:21.820Z,-.82
2023-03-17T06:33:38.916Z,-.72
2023-03-17T06:34:09.402Z,-.89
2023-03-17T06:34:39.403Z,-.79
2023-03-17T06:35:10.853Z,-.70
2023-03-17T06:35:41.660Z,-.88
2023-03-17T06:36:12.486Z,-.70
2023-03-17T06:36:43.751Z,-.78
2023-03-17T06:37:15.456Z,-.68
2023-03-17T06:38:37.948Z,-.67
2023-03-17T06:38:48.446Z,-.77
2023-03-17T06:39:19.276Z,-.57
2023-03-17T06:39:50.251Z,-.65
2023-03-17T06:40:21.266Z,-.84
2023-03-17T06:40:51.993Z,-.36
2023-03-17T06:41:23.035Z,-.47
2023-03-17T06:41:54.040Z,-.37
2023-03-17T06:42:24.721Z,-.08
2023-03-17T06:42:55.796Z,0
2023-03-17T06:43:26.966Z,0
2023-03-17T06:43:59.123Z,-.09
2023-03-17T06:44:29.378Z,0
2023-03-17T06:44:59.960Z,.09
2023-03-17T06:45:33.133Z,-.02
2023-03-17T06:46:02.226Z,.16
2023-03-17T06:46:32.626Z,.26
2023-03-17T06:47:03.837Z,.05
2023-03-17T06:47:34.919Z,.45
2023-03-17T06:48:06.192Z,.24
2023-03-17T06:48:37.083Z,.33
2023-03-17T06:49:09.118Z,.43
2023-03-17T06:49:39.219Z,.43
2023-03-17T06:50:10.967Z,.41
2023-03-17T06:50:41.156Z,.83
2023-03-17T06:51:11.767Z,.81
2023-03-17T06:51:42.667Z,.69
2023-03-17T06:52:31.468Z,.53
2023-03-17T06:52:46.708Z,.53
2023-03-17T06:53:15.720Z,.50
2023-03-17T06:53:47.438Z,.45
2023-03-17T06:54:18.577Z,.41
2023-03-17T06:54:49.666Z,.97
2023-03-17T06:59:35.911Z,.86
2023-03-17T07:00:01.400Z,.86
2023-03-17T07:00:32.696Z,1.44
2023-03-17T07:01:03.700Z,1.21
2023-03-17T07:01:55.976Z,1.21
2023-03-17T07:02:06.437Z,1.44
2023-03-17T07:02:35.634Z,1.30
2023-03-17T07:03:06.823Z,1.30
2023-03-17T07:03:38.595Z,1.54
2023-03-17T07:04:07.315Z,1.39
2023-03-17T07:04:37.855Z,1.73
2023-03-17T07:05:08.893Z,1.95
2023-03-17T07:05:40.509Z,1.82
2023-03-17T07:07:37.160Z,1.42
2023-03-17T07:07:43.750Z,1.04
2023-03-17T07:08:14.597Z,1.52